createdAt,value
2023-03-25T00:00:05.895Z,9.39
2023-03-25T00:01:05.871Z,9.39
2023-03-25T00:02:06.024Z,9.39
2023-03-25T00:03:05.894Z,9.39
2023-03-25T00:04:05.822Z,9.39
2023-03-25T00:05:05.834Z,9.42
2023-03-25T00:06:05.832Z,9.35
2023-03-25T00:07:05.786Z,9.43
2023-03-25T00:08:05.784Z,9.29
2023-03-25T00:09:05.764Z,9.38
2023-03-25T00:10:05.780Z,9.36
2023-03-25T00:11:05.752Z,9.35
2023-03-25T00:12:05.777Z,9.38
2023-03-25T00:13:05.729Z,9.36
2023-03-25T00:14:05.715Z,9.36
2023-03-25T00:15:05.722Z,9.35
2023-03-25T00:16:05.694Z,9.39
2023-03-25T00:17:05.685Z,9.26
2023-03-25T00:18:05.709Z,9.38
2023-03-25T00:19:05.678Z,9.40
2023-03-25T00:20:05.661Z,9.39
2023-03-25T00:21:05.637Z,9.38
2023-03-25T00:22:05.670Z,9.38
2023-03-25T00:23:05.625Z,9.31
2023-03-25T00:24:05.614Z,9.32
2023-03-25T00:25:05.587Z,9.46
2023-03-25T00:26:05.612Z,9.40
2023-03-25T00:27:05.567Z,9.39
2023-03-25T00:28:05.574Z,9.42
2023-03-25T00:29:05.539Z,9.29
2023-03-25T00:30:05.531Z,9.36
2023-03-25T00:31:05.571Z,9.33
2023-03-25T00:32:05.645Z,9.29
2023-03-25T00:33:05.553Z,9.32
2023-03-25T00:34:05.501Z,9.32
2023-03-25T00:35:05.514Z,9.18
2023-03-25T00:36:05.542Z,9.18
2023-03-25T00:37:05.459Z,9.20
2023-03-25T00:38:05.451Z,9.17
2023-03-25T00:39:05.488Z,9.18
2023-03-25T00:40:05.453Z,9.14
2023-03-25T00:41:05.407Z,9.14
2023-03-25T00:42:05.396Z,9.13
2023-03-25T00:43:05.385Z,9.21
2023-03-25T00:44:05.394Z,9.17
2023-03-25T00:45:05.391Z,9.14
2023-03-25T00:46:05.382Z,9.11
2023-03-25T00:47:05.343Z,9.05
2023-03-25T00:48:06.864Z,9.13
2023-03-25T00:49:05.346Z,9.18
2023-03-25T00:50:05.311Z,9.21
2023-03-25T00:51:05.313Z,9.13
2023-03-25T00:52:05.287Z,9.15
2023-03-25T00:53:05.298Z,9.15
2023-03-25T00:54:05.318Z,9.18
2023-03-25T00:55:05.256Z,9.17
2023-03-25T00:56:05.254Z,9.18
2023-03-25T00:57:05.272Z,9.18
2023-03-25T00:58:05.230Z,9.13
2023-03-25T00:59:05.217Z,9.14
2023-03-25T01:00:05.233Z,9.13
2023-03-25T01:01:05.208Z,9.15
2023-03-25T01:02:05.183Z,9.17
2023-03-25T01:03:05.269Z,9.15
2023-03-25T01:04:05.153Z,9.17
2023-03-25T01:05:05.165Z,9.17
2023-03-25T01:06:05.145Z,9.15
2023-03-25T01:07:05.136Z,9.15
2023-03-25T01:08:05.141Z,9.17
2023-03-25T01:09:05.106Z,9.14
2023-03-25T01:10:05.091Z,9.20
2023-03-25T01:11:05.118Z,9.24
2023-03-25T01:12:05.065Z,9.20
2023-03-25T01:13:05.055Z,9.21
2023-03-25T01:14:05.051Z,9.17
2023-03-25T01:15:05.026Z,9.18
2023-03-25T01:16:05.063Z,9.17
2023-03-25T01:17:05.007Z,9.17
2023-03-25T01:18:05.048Z,9.17
2023-03-25T01:19:04.986Z,9.13
2023-03-25T01:20:04.984Z,9.20
2023-03-25T01:21:04.980Z,9.18
2023-03-25T01:22:04.954Z,9.18
2023-03-25T01:23:04.954Z,9.18
2023-03-25T01:24:04.924Z,9.23
2023-03-25T01:25:04.933Z,9.18
2023-03-25T01:26:04.905Z,9.20
2023-03-25T01:27:04.886Z,9.20
2023-03-25T01:28:04.886Z,9.18
2023-03-25T01:29:04.870Z,9.14
2023-03-25T01:30:04.895Z,9.20
2023-03-25T01:31:04.922Z,9.23
2023-03-25T01:32:04.854Z,9.20
2023-03-25T01:33:04.857Z,9.23
2023-03-25T01:34:04.902Z,9.20
2023-03-25T01:35:04.811Z,9.23
2023-03-25T01:36:04.966Z,9.18
2023-03-25T01:37:04.843Z,9.21
2023-03-25T01:38:04.773Z,9.14
2023-03-25T01:39:04.785Z,9.21
2023-03-25T01:40:04.753Z,9.21
2023-03-25T01:41:04.736Z,9.11
2023-03-25T01:42:04.791Z,9.15
2023-03-25T01:43:04.741Z,9.13
2023-03-25T01:44:04.800Z,9.13
2023-03-25T01:45:04.695Z,9.13
2023-03-25T01:46:04.714Z,9.11
2023-03-25T01:47:04.715Z,9.14
2023-03-25T01:48:04.682Z,9.08
2023-03-25T01:49:04.646Z,9.14
2023-03-25T01:50:04.640Z,9.13
2023-03-25T01:51:04.642Z,9.15
2023-03-25T01:52:04.659Z,9.14
2023-03-25T01:53:04.615Z,9.14
2023-03-25T01:54:04.599Z,9.13
2023-03-25T01:55:04.692Z,9.17
2023-03-25T01:56:04.568Z,9.11
2023-03-25T01:57:04.625Z,9.15
2023-03-25T01:58:04.590Z,9.10
2023-03-25T01:59:04.562Z,9.17
2023-03-25T02:00:04.605Z,9.20
2023-03-25T02:01:04.611Z,9.11
2023-03-25T02:02:04.523Z,9.14
2023-03-25T02:03:04.516Z,9.14
2023-03-25T02:04:04.566Z,9.20
2023-03-25T02:05:04.549Z,9.24
2023-03-25T02:06:04.491Z,9.33
2023-03-25T02:07:04.558Z,9.20
2023-03-25T02:08:04.448Z,9.26
2023-03-25T02:09:04.733Z,9.28
2023-03-25T02:10:04.438Z,9.28
2023-03-25T02:11:04.631Z,9.23
2023-03-25T02:12:04.399Z,9.15
2023-03-25T02:13:04.735Z,9.26
2023-03-25T02:14:04.383Z,9.21
2023-03-25T02:15:04.417Z,9.26
2023-03-25T02:16:04.459Z,9.24
2023-03-25T02:17:04.372Z,9.29
2023-03-25T02:18:04.371Z,9.29
2023-03-25T02:19:04.391Z,9.24
2023-03-25T02:20:04.339Z,9.23
2023-03-25T02:21:04.425Z,9.20
2023-03-25T02:22:04.314Z,9.28
2023-03-25T02:23:04.414Z,9.35
2023-03-25T02:24:04.284Z,9.26
2023-03-25T02:25:04.822Z,9.32
2023-03-25T02:26:04.253Z,9.29
2023-03-25T02:27:04.403Z,9.31
2023-03-25T02:28:04.234Z,9.33
2023-03-25T02:29:04.404Z,9.31
2023-03-25T02:30:04.191Z,9.29
2023-03-25T02:31:04.210Z,9.29
2023-03-25T02:32:04.256Z,9.31
2023-03-25T02:33:04.226Z,9.39
2023-03-25T02:34:04.157Z,9.29
2023-03-25T02:35:04.172Z,9.28
2023-03-25T02:36:04.173Z,9.29
2023-03-25T02:37:04.124Z,9.21
2023-03-25T02:38:04.108Z,9.28
2023-03-25T02:39:04.117Z,9.15
2023-03-25T02:40:04.089Z,9.14
2023-03-25T02:41:04.093Z,9.24
2023-03-25T02:42:04.068Z,9.33
2023-03-25T02:43:04.103Z,9.33
2023-03-25T02:44:04.050Z,9.31
2023-03-25T02:45:04.607Z,9.38
2023-03-25T02:46:04.130Z,9.42
2023-03-25T02:47:04.003Z,9.33
2023-03-25T02:48:04.091Z,9.32
2023-03-25T02:49:03.984Z,9.36
2023-03-25T02:50:03.987Z,9.38
2023-03-25T02:51:03.968Z,9.42
2023-03-25T02:52:03.948Z,9.31
2023-03-25T02:53:03.971Z,9.33
2023-03-25T02:54:04.032Z,9.29
2023-03-25T02:55:03.924Z,9.33
2023-03-25T02:56:03.917Z,9.35
2023-03-25T02:57:03.961Z,9.32
2023-03-25T02:58:03.903Z,9.35
2023-03-25T02:59:03.921Z,9.32
2023-03-25T03:00:03.862Z,9.24
2023-03-25T03:01:03.886Z,9.24
2023-03-25T03:02:03.910Z,9.18
2023-03-25T03:03:04.096Z,9.14
2023-03-25T03:04:03.816Z,9.10
2023-03-25T03:05:03.796Z,8.91
2023-03-25T03:06:03.857Z,8.91
2023-03-25T03:07:03.810Z,8.96
2023-03-25T03:08:03.777Z,8.87
2023-03-25T03:09:03.763Z,8.79
2023-03-25T03:10:03.756Z,8.68
2023-03-25T03:11:03.762Z,8.68
2023-03-25T03:12:03.750Z,8.65
2023-03-25T03:13:03.724Z,8.62
2023-03-25T03:14:03.733Z,8.55
2023-03-25T03:15:03.718Z,8.48
2023-03-25T03:16:03.692Z,8.44
2023-03-25T03:17:03.794Z,8.43
2023-03-25T03:18:03.776Z,8.33
2023-03-25T03:19:03.693Z,8.34
2023-03-25T03:20:03.644Z,8.29
2023-03-25T03:21:03.629Z,8.23
2023-03-25T03:22:03.638Z,8.28
2023-03-25T03:23:03.630Z,8.28
2023-03-25T03:24:03.629Z,8.18
2023-03-25T03:25:03.584Z,8.20
2023-03-25T03:26:03.588Z,8.18
2023-03-25T03:27:03.559Z,8.20
2023-03-25T03:28:03.551Z,8.23
2023-03-25T03:29:03.555Z,8.28
2023-03-25T03:30:03.554Z,8.41
2023-03-25T03:31:03.584Z,8.40
2023-03-25T03:32:06.676Z,8.48
2023-03-25T03:33:03.578Z,8.38
2023-03-25T03:34:03.527Z,8.44
2023-03-25T03:35:03.479Z,8.45
2023-03-25T03:36:03.526Z,8.43
2023-03-25T03:37:03.458Z,8.45
2023-03-25T03:38:03.469Z,8.44
2023-03-25T03:39:03.450Z,8.44
2023-03-25T03:40:03.472Z,8.45
2023-03-25T03:41:03.425Z,8.38
2023-03-25T03:42:03.407Z,8.48
2023-03-25T03:43:03.480Z,8.56
2023-03-25T03:44:03.411Z,8.53
2023-03-25T03:45:03.370Z,8.55
2023-03-25T03:46:03.382Z,8.61
2023-03-25T03:47:03.378Z,8.55
2023-03-25T03:48:03.359Z,8.55
2023-03-25T03:49:03.352Z,8.58
2023-03-25T03:50:03.346Z,8.61
2023-03-25T03:51:03.307Z,8.59
2023-03-25T03:52:03.298Z,8.61
2023-03-25T03:53:04.268Z,8.58
2023-03-25T03:54:03.294Z,8.58
2023-03-25T03:55:03.279Z,8.61
2023-03-25T03:56:03.250Z,8.66
2023-03-25T03:57:03.297Z,8.58
2023-03-25T03:58:03.218Z,8.61
2023-03-25T03:59:03.226Z,8.62
2023-03-25T04:00:03.200Z,8.65
2023-03-25T04:02:13.975Z,8.55
2023-03-25T04:03:13.986Z,8.56
2023-03-25T04:04:13.936Z,8.55
2023-03-25T04:05:13.894Z,8.59
2023-03-25T04:06:13.887Z,8.50
2023-03-25T04:07:13.878Z,8.48
2023-03-25T04:08:13.924Z,8.55
2023-03-25T04:09:13.921Z,8.55
2023-03-25T04:10:13.962Z,8.47
2023-03-25T04:11:13.810Z,8.52
2023-03-25T04:12:13.883Z,8.65
2023-03-25T04:13:13.858Z,8.52
2023-03-25T04:14:13.960Z,8.55
2023-03-25T04:15:14.682Z,8.63
2023-03-25T04:16:13.765Z,8.58
2023-03-25T04:17:14.673Z,8.50
2023-03-25T04:18:13.750Z,8.55
2023-03-25T04:19:13.733Z,8.63
2023-03-25T04:20:13.717Z,8.66
2023-03-25T04:21:13.722Z,8.50
2023-03-25T04:22:13.679Z,8.53
2023-03-25T04:23:13.687Z,8.55
2023-03-25T04:24:13.689Z,8.50
2023-03-25T04:25:13.767Z,8.47
2023-03-25T04:26:13.643Z,8.47
2023-03-25T04:27:13.707Z,8.44
2023-03-25T04:28:13.631Z,8.47
2023-03-25T04:29:13.630Z,8.43
2023-03-25T04:30:13.625Z,8.44
2023-03-25T04:31:13.693Z,8.48
2023-03-25T04:32:13.620Z,8.44
2023-03-25T04:33:13.556Z,8.44
2023-03-25T04:34:13.563Z,8.40
2023-03-25T04:35:13.538Z,8.48
2023-03-25T04:36:13.570Z,8.53
2023-03-25T04:37:13.540Z,8.44
2023-03-25T04:38:13.512Z,8.53
2023-03-25T04:39:13.492Z,8.50
2023-03-25T04:40:13.490Z,8.52
2023-03-25T04:41:13.539Z,8.53
2023-03-25T04:42:13.711Z,8.47
2023-03-25T04:43:13.552Z,8.47
2023-03-25T04:44:13.480Z,8.53
2023-03-25T04:45:13.495Z,8.45
2023-03-25T04:46:13.487Z,8.48
2023-03-25T04:47:13.401Z,8.50
2023-03-25T04:48:13.391Z,8.47
2023-03-25T04:49:13.446Z,8.44
2023-03-25T04:50:13.404Z,8.44
2023-03-25T04:51:13.356Z,8.44
2023-03-25T04:52:13.403Z,8.50
2023-03-25T04:53:13.358Z,8.47
2023-03-25T04:54:13.441Z,8.48
2023-03-25T04:55:13.396Z,8.47
2023-03-25T04:56:13.298Z,8.47
2023-03-25T04:57:15.174Z,8.52
2023-03-25T04:58:13.384Z,8.56
2023-03-25T04:59:13.510Z,8.41
2023-03-25T05:01:24.132Z,8.44
2023-03-25T05:02:24.024Z,8.48
2023-03-25T05:03:24.047Z,8.43
2023-03-25T05:04:24.001Z,8.45
2023-03-25T05:05:23.971Z,8.41
2023-03-25T05:06:26.172Z,8.44
2023-03-25T05:07:23.976Z,8.43
2023-03-25T05:08:23.939Z,8.29
2023-03-25T05:09:23.907Z,8.30
2023-03-25T05:10:23.921Z,8.33
2023-03-25T05:11:23.899Z,8.26
2023-03-25T05:12:23.882Z,8.34
2023-03-25T05:13:23.902Z,8.28
2023-03-25T05:14:23.854Z,8.28
2023-03-25T05:15:23.884Z,8.33
2023-03-25T05:16:23.917Z,8.33
2023-03-25T05:17:23.859Z,8.18
2023-03-25T05:18:23.875Z,8.29
2023-03-25T05:19:23.792Z,8.25
2023-03-25T05:20:23.797Z,8.20
2023-03-25T05:21:23.804Z,8.19
2023-03-25T05:22:23.832Z,8.38
2023-03-25T05:23:23.739Z,8.30
2023-03-25T05:24:23.724Z,8.15
2023-03-25T05:25:23.705Z,8.19
2023-03-25T05:26:23.700Z,8.18
2023-03-25T05:27:23.710Z,8.25
2023-03-25T05:28:23.708Z,8.18
2023-03-25T05:29:23.686Z,8.26
2023-03-25T05:30:23.665Z,8.16
2023-03-25T05:31:23.650Z,8.16
2023-03-25T05:32:23.693Z,8.22
2023-03-25T05:33:23.634Z,8.16
2023-03-25T05:34:23.605Z,8.15
2023-03-25T05:35:23.625Z,8.19
2023-03-25T05:36:23.583Z,8.16
2023-03-25T05:37:23.617Z,8.16
2023-03-25T05:38:23.584Z,8.15
2023-03-25T05:39:23.545Z,8.12
2023-03-25T05:40:23.574Z,8.18
2023-03-25T05:41:23.525Z,8.16
2023-03-25T05:42:23.539Z,8.23
2023-03-25T05:43:23.503Z,8.29
2023-03-25T05:45:35.816Z,8.18
2023-03-25T05:46:35.717Z,8.18
2023-03-25T05:47:35.801Z,8.25
2023-03-25T05:48:35.696Z,8.33
2023-03-25T05:49:35.683Z,8.28
2023-03-25T05:50:35.697Z,8.29
2023-03-25T05:51:35.661Z,8.36
2023-03-25T05:52:35.704Z,8.33
2023-03-25T05:53:35.652Z,8.33
2023-03-25T05:54:35.628Z,8.29
2023-03-25T05:55:38.749Z,8.28
2023-03-25T05:56:36.636Z,8.30
2023-03-25T05:57:35.640Z,8.33
2023-03-25T05:58:35.585Z,8.30
2023-03-25T05:59:35.617Z,8.33
2023-03-25T06:01:47.292Z,8.16
2023-03-25T06:02:47.339Z,8.19
2023-03-25T06:03:47.354Z,8.15
2023-03-25T06:04:47.259Z,8.33
2023-03-25T06:05:47.268Z,8.26
2023-03-25T06:06:47.271Z,8.29
2023-03-25T06:07:47.261Z,8.16
2023-03-25T06:08:47.209Z,8.28
2023-03-25T06:10:59.443Z,8.26
2023-03-25T06:11:59.455Z,8.22
2023-03-25T06:13:07.639Z,8.18
2023-03-25T06:14:00.851Z,8.15
2023-03-25T06:14:59.400Z,8.18
2023-03-25T06:15:59.374Z,8.15
2023-03-25T06:16:59.366Z,8.26
2023-03-25T06:17:59.459Z,8.15
2023-03-25T06:18:59.494Z,8.22
2023-03-25T06:19:59.355Z,8.18
2023-03-25T06:20:59.354Z,8.23
2023-03-25T06:21:59.326Z,8.22
2023-03-25T06:22:59.345Z,8.15
2023-03-25T06:23:59.293Z,8.25
2023-03-25T06:25:00.051Z,8.18
2023-03-25T06:25:59.292Z,8.15
2023-03-25T06:26:59.255Z,8.10
2023-03-25T06:27:59.248Z,8.07
2023-03-25T06:28:59.231Z,8.00
2023-03-25T06:29:59.271Z,8.02
2023-03-25T06:30:59.245Z,8.04
2023-03-25T06:31:59.219Z,8.00
2023-03-25T06:32:59.244Z,8.05
2023-03-25T06:33:59.191Z,8.04
2023-03-25T06:34:59.190Z,8.00
2023-03-25T06:35:59.169Z,8.12
2023-03-25T06:36:59.176Z,8.10
2023-03-25T06:37:59.132Z,8.11
2023-03-25T06:38:59.143Z,8.20
2023-03-25T06:39:59.123Z,8.20
2023-03-25T06:40:59.095Z,8.34
2023-03-25T06:41:59.104Z,8.40
2023-03-25T06:42:59.077Z,8.45
2023-03-25T06:43:59.097Z,8.43
2023-03-25T06:44:59.076Z,8.47
2023-03-25T06:45:59.044Z,8.44
2023-03-25T06:46:59.037Z,8.53
2023-03-25T06:47:59.058Z,8.48
2023-03-25T06:48:59.027Z,8.53
2023-03-25T06:49:58.999Z,8.65
2023-03-25T06:50:59.005Z,8.65
2023-03-25T06:51:58.982Z,8.73
2023-03-25T06:52:58.972Z,8.77
2023-03-25T06:53:58.963Z,8.73
2023-03-25T06:54:58.982Z,8.76
2023-03-25T06:55:58.927Z,8.83
2023-03-25T06:56:58.955Z,8.76
2023-03-25T06:57:58.957Z,8.74
2023-03-25T06:58:58.895Z,8.77
2023-03-25T06:59:58.919Z,8.76
2023-03-25T07:00:58.885Z,8.77
2023-03-25T07:01:58.916Z,8.84
2023-03-25T07:02:58.866Z,8.76
2023-03-25T07:03:58.863Z,8.80
2023-03-25T07:04:58.928Z,8.87
2023-03-25T07:05:58.822Z,8.86
2023-03-25T07:06:58.811Z,8.91
2023-03-25T07:07:58.802Z,8.87
2023-03-25T07:08:58.806Z,8.89
2023-03-25T07:09:58.798Z,8.84
2023-03-25T07:10:58.807Z,8.81
2023-03-25T07:11:58.753Z,8.80
2023-03-25T07:12:58.748Z,8.95
2023-03-25T07:13:58.764Z,8.92
2023-03-25T07:14:58.722Z,8.96
2023-03-25T07:15:58.728Z,9.10
2023-03-25T07:16:58.709Z,9.10
2023-03-25T07:17:58.724Z,9.10
2023-03-25T07:18:58.700Z,9.18
2023-03-25T07:19:58.686Z,9.23
2023-03-25T07:20:58.661Z,9.26
2023-03-25T07:21:58.649Z,9.31
2023-03-25T07:22:58.647Z,9.29
2023-03-25T07:23:58.625Z,9.29
2023-03-25T07:24:58.631Z,9.23
2023-03-25T07:25:58.594Z,9.23
2023-03-25T07:26:58.610Z,9.18
2023-03-25T07:27:58.673Z,9.40
2023-03-25T07:28:58.674Z,9.42
2023-03-25T07:29:58.589Z,9.48
2023-03-25T07:30:58.548Z,9.54
2023-03-25T07:31:58.539Z,9.48
2023-03-25T07:32:58.580Z,9.53
2023-03-25T07:33:58.522Z,9.56
2023-03-25T07:34:58.570Z,9.54
2023-03-25T07:35:58.571Z,9.69
2023-03-25T07:36:58.524Z,9.91
2023-03-25T07:37:58.478Z,9.96
2023-03-25T07:38:58.476Z,9.96
2023-03-25T07:39:58.451Z,10.09
2023-03-25T07:40:58.457Z,10.15
2023-03-25T07:41:58.462Z,10.36
2023-03-25T07:42:58.476Z,10.56
2023-03-25T07:43:58.399Z,10.52
2023-03-25T07:44:58.389Z,10.53
2023-03-25T07:45:58.626Z,10.56
2023-03-25T07:46:58.377Z,10.47
2023-03-25T07:47:58.405Z,10.53
2023-03-25T07:48:58.408Z,10.51
2023-03-25T07:49:58.345Z,10.45
2023-03-25T07:50:58.325Z,10.41
2023-03-25T07:51:58.306Z,10.34
2023-03-25T07:52:58.302Z,10.26
2023-03-25T07:54:05.536Z,10.23
2023-03-25T07:54:59.750Z,10.20
2023-03-25T07:55:58.264Z,10.02
2023-03-25T07:56:58.339Z,10.02
2023-03-25T07:57:58.235Z,10.01
2023-03-25T07:58:58.247Z,10.07
2023-03-25T07:59:58.213Z,10.02
2023-03-25T08:00:58.207Z,9.97
2023-03-25T08:01:58.274Z,10.09
2023-03-25T08:02:58.290Z,10.05
2023-03-25T08:03:58.179Z,10.04
2023-03-25T08:04:58.182Z,10.20
2023-03-25T08:05:58.210Z,10.25
2023-03-25T08:06:58.152Z,10.51
2023-03-25T08:07:58.155Z,10.60
2023-03-25T08:08:58.118Z,10.51
2023-03-25T08:09:58.138Z,10.42
2023-03-25T08:10:58.137Z,10.40
2023-03-25T08:11:58.084Z,10.40
2023-03-25T08:12:58.073Z,10.25
2023-03-25T08:13:58.063Z,10.30
2023-03-25T08:14:58.100Z,10.26
2023-03-25T08:15:58.048Z,10.26
2023-03-25T08:16:58.065Z,10.34
2023-03-25T08:17:58.094Z,10.27
2023-03-25T08:18:58.003Z,10.26
2023-03-25T08:19:57.990Z,10.33
2023-03-25T08:20:57.988Z,10.34
2023-03-25T08:21:57.979Z,10.42
2023-03-25T08:22:57.958Z,10.38
2023-03-25T08:23:57.967Z,10.38
2023-03-25T08:24:57.936Z,10.36
2023-03-25T08:25:57.954Z,10.27
2023-03-25T08:26:57.918Z,10.26
2023-03-25T08:27:57.899Z,10.15
2023-03-25T08:28:57.996Z,10.11
2023-03-25T08:29:57.877Z,10.05
2023-03-25T08:30:57.924Z,10.01
2023-03-25T08:31:57.904Z,10.04
2023-03-25T08:32:57.928Z,10.20
2023-03-25T08:33:57.833Z,10.17
2023-03-25T08:34:57.820Z,10.20
2023-03-25T08:35:57.936Z,10.32
2023-03-25T08:36:57.823Z,10.25
2023-03-25T08:37:57.788Z,10.22
2023-03-25T08:38:57.790Z,10.38
2023-03-25T08:39:57.791Z,10.27
2023-03-25T08:40:57.794Z,10.26
2023-03-25T08:41:57.744Z,10.25
2023-03-25T08:42:57.744Z,10.30
2023-03-25T08:43:57.770Z,10.23
2023-03-25T08:44:57.738Z,10.20
2023-03-25T08:45:57.778Z,10.29
2023-03-25T08:46:57.725Z,10.18
2023-03-25T08:47:57.757Z,10.22
2023-03-25T08:48:57.668Z,10.14
2023-03-25T08:49:57.655Z,10.09
2023-03-25T08:50:57.644Z,10.08
2023-03-25T08:51:57.669Z,9.97
2023-03-25T08:52:57.632Z,9.96
2023-03-25T08:53:57.606Z,9.99
2023-03-25T08:54:57.609Z,10.08
2023-03-25T08:55:57.610Z,10.04
2023-03-25T08:56:57.598Z,10.11
2023-03-25T08:57:57.569Z,10.22
2023-03-25T08:58:57.561Z,10.17
2023-03-25T08:59:57.544Z,10.20
2023-03-25T09:00:57.562Z,10.27
2023-03-25T09:02:00.132Z,10.23
2023-03-25T09:02:57.629Z,10.25
2023-03-25T09:03:57.508Z,10.26
2023-03-25T09:04:57.503Z,10.26
2023-03-25T09:05:57.555Z,10.26
2023-03-25T09:07:12.044Z,10.32
2023-03-25T09:07:58.490Z,10.45
2023-03-25T09:08:57.481Z,10.51
2023-03-25T09:09:57.444Z,10.48
2023-03-25T09:10:57.436Z,10.48
2023-03-25T09:11:57.423Z,10.45
2023-03-25T09:12:57.433Z,10.36
2023-03-25T09:13:57.425Z,10.48
2023-03-25T09:14:57.420Z,10.44
2023-03-25T09:15:57.398Z,10.42
2023-03-25T09:16:57.366Z,10.45
2023-03-25T09:17:57.379Z,10.51
2023-03-25T09:18:57.385Z,10.44
2023-03-25T09:19:58.488Z,10.55
2023-03-25T09:20:57.325Z,10.61
2023-03-25T09:21:57.352Z,10.60
2023-03-25T09:22:57.315Z,10.61
2023-03-25T09:23:57.290Z,10.56
2023-03-25T09:24:57.294Z,10.71
2023-03-25T09:25:57.251Z,10.85
2023-03-25T09:26:57.240Z,10.84
2023-03-25T09:27:57.240Z,10.91
2023-03-25T09:28:57.235Z,10.89
2023-03-25T09:29:57.238Z,10.82
2023-03-25T09:30:57.251Z,10.79
2023-03-25T09:31:57.189Z,10.76
2023-03-25T09:32:57.220Z,10.74
2023-03-25T09:33:57.166Z,10.79
2023-03-25T09:34:57.221Z,10.79
2023-03-25T09:35:57.149Z,10.67
2023-03-25T09:36:57.130Z,10.71
2023-03-25T09:37:57.122Z,10.79
2023-03-25T09:38:57.105Z,10.74
2023-03-25T09:39:57.160Z,10.79
2023-03-25T09:40:57.115Z,10.76
2023-03-25T09:41:57.077Z,10.71
2023-03-25T09:42:57.063Z,10.66
2023-03-25T09:43:57.064Z,10.79
2023-03-25T09:44:57.168Z,10.61
2023-03-25T09:45:57.031Z,10.68
2023-03-25T09:46:57.057Z,10.73
2023-03-25T09:47:57.037Z,10.68
2023-03-25T09:48:56.998Z,10.61
2023-03-25T09:49:58.831Z,10.66
2023-03-25T09:50:56.992Z,10.66
2023-03-25T09:51:57.009Z,10.71
2023-03-25T09:52:57.083Z,10.67
2023-03-25T09:53:56.947Z,10.79
2023-03-25T09:54:56.933Z,10.79
2023-03-25T09:55:56.953Z,11.03
2023-03-25T09:56:56.938Z,11.22
2023-03-25T09:57:56.904Z,11.32
2023-03-25T09:58:56.924Z,11.55
2023-03-25T09:59:56.878Z,11.60
2023-03-25T10:00:56.916Z,11.60
2023-03-25T10:01:56.880Z,11.49
2023-03-25T10:02:56.857Z,11.39
2023-03-25T10:03:56.842Z,11.21
2023-03-25T10:04:56.821Z,10.97
2023-03-25T10:05:56.832Z,10.82
2023-03-25T10:06:56.822Z,10.71
2023-03-25T10:07:56.785Z,10.64
2023-03-25T10:08:56.801Z,10.47
2023-03-25T10:09:56.774Z,10.53
2023-03-25T10:10:56.797Z,10.32
2023-03-25T10:11:56.857Z,10.29
2023-03-25T10:12:56.741Z,10.26
2023-03-25T10:13:56.723Z,10.23
2023-03-25T10:14:56.734Z,10.17
2023-03-25T10:15:56.752Z,9.91
2023-03-25T10:16:56.685Z,9.79
2023-03-25T10:18:56.687Z,9.61
2023-03-25T10:19:56.708Z,9.50
2023-03-25T10:20:56.702Z,9.50
2023-03-25T10:21:56.722Z,9.33
2023-03-25T10:22:56.768Z,9.29
2023-03-25T10:23:56.707Z,9.21
2023-03-25T10:24:56.609Z,9.17
2023-03-25T10:25:56.595Z,8.95
2023-03-25T10:26:56.606Z,8.92
2023-03-25T10:27:56.602Z,8.80
2023-03-25T10:28:56.555Z,8.83
2023-03-25T10:29:56.572Z,8.95
2023-03-25T10:30:56.540Z,9.15
2023-03-25T10:31:56.557Z,9.36
2023-03-25T10:32:56.615Z,9.50
2023-03-25T10:33:56.499Z,9.74
2023-03-25T10:34:56.517Z,9.99
2023-03-25T10:35:56.577Z,10.02
2023-03-25T10:36:56.480Z,10.14
2023-03-25T10:37:56.463Z,10.11
2023-03-25T10:38:56.462Z,10.26
2023-03-25T10:39:56.457Z,10.47
2023-03-25T10:40:56.425Z,10.68
2023-03-25T10:41:56.442Z,11.00
2023-03-25T10:42:56.403Z,11.40
2023-03-25T10:43:56.401Z,11.61
2023-03-25T10:44:56.380Z,11.58
2023-03-25T10:45:56.436Z,11.57
2023-03-25T10:46:56.350Z,11.44
2023-03-25T10:47:56.377Z,11.35
2023-03-25T10:48:56.331Z,11.32
2023-03-25T10:49:56.357Z,11.32
2023-03-25T10:50:56.349Z,11.29
2023-03-25T10:51:56.334Z,11.19
2023-03-25T10:52:56.320Z,11.17
2023-03-25T10:53:56.286Z,11.06
2023-03-25T10:54:56.297Z,11.15
2023-03-25T10:55:56.265Z,11.15
2023-03-25T10:56:56.323Z,11.36
2023-03-25T10:57:56.275Z,11.37
2023-03-25T10:58:56.230Z,11.75
2023-03-25T10:59:56.208Z,11.80
2023-03-25T11:00:56.236Z,12.04
2023-03-25T11:01:56.252Z,12.28
2023-03-25T11:02:56.348Z,12.41
2023-03-25T11:03:56.180Z,12.64
2023-03-25T11:04:56.154Z,12.89
2023-03-25T11:05:56.139Z,13.10
2023-03-25T11:06:56.147Z,13.30
2023-03-25T11:07:56.116Z,13.46
2023-03-25T11:08:56.137Z,13.54
2023-03-25T11:09:56.097Z,13.62
2023-03-25T11:10:56.117Z,13.89
2023-03-25T11:11:56.085Z,14.18
2023-03-25T11:12:56.060Z,14.14
2023-03-25T11:13:56.077Z,14.18
2023-03-25T11:14:56.037Z,14.07
2023-03-25T11:15:56.069Z,13.99
2023-03-25T11:16:56.038Z,13.69
2023-03-25T11:17:56.077Z,13.46
2023-03-25T11:18:55.988Z,13.30
2023-03-25T11:19:56.008Z,13.30
2023-03-25T11:20:55.977Z,13.12
2023-03-25T11:21:55.965Z,12.90
2023-03-25T11:22:55.970Z,12.78
2023-03-25T11:23:55.950Z,13.03
2023-03-25T11:24:55.926Z,13.01
2023-03-25T11:25:55.937Z,13.10
2023-03-25T11:26:55.917Z,12.96
2023-03-25T11:27:55.918Z,12.79
2023-03-25T11:28:55.889Z,12.53
2023-03-25T11:29:55.880Z,12.47
2023-03-25T11:30:55.916Z,12.89
2023-03-25T11:31:55.851Z,12.83
2023-03-25T11:32:55.872Z,12.95
2023-03-25T11:33:55.848Z,13.11
2023-03-25T11:34:55.840Z,13.17
2023-03-25T11:35:55.851Z,13.26
2023-03-25T11:36:55.804Z,13.28
2023-03-25T11:37:55.782Z,13.12
2023-03-25T11:38:55.792Z,13.11
2023-03-25T11:39:56.147Z,13.17
2023-03-25T11:40:55.747Z,13.15
2023-03-25T11:41:55.741Z,13.10
2023-03-25T11:42:55.768Z,13.15
2023-03-25T11:43:55.736Z,12.97
2023-03-25T11:44:55.705Z,12.79
2023-03-25T11:45:55.841Z,12.64
2023-03-25T11:46:55.714Z,12.54
2023-03-25T11:47:55.719Z,12.59
2023-03-25T11:48:55.666Z,12.54
2023-03-25T11:49:55.644Z,12.56
2023-03-25T11:50:55.631Z,12.45
2023-03-25T11:51:55.650Z,12.45
2023-03-25T11:52:55.610Z,12.45
2023-03-25T11:53:55.625Z,12.56
2023-03-25T11:54:55.596Z,12.79
2023-03-25T11:55:55.576Z,13.20
2023-03-25T11:56:55.617Z,13.63
2023-03-25T11:57:55.553Z,13.64
2023-03-25T11:58:55.563Z,13.52
2023-03-25T11:59:55.534Z,13.29
2023-03-25T12:00:55.523Z,13.26
2023-03-25T12:01:55.544Z,13.03
2023-03-25T12:02:55.560Z,12.83
2023-03-25T12:03:55.594Z,12.74
2023-03-25T12:04:55.479Z,12.62
2023-03-25T12:05:55.567Z,12.57
2023-03-25T12:06:55.481Z,12.49
2023-03-25T12:07:55.453Z,12.28
2023-03-25T12:08:55.451Z,12.23
2023-03-25T12:09:55.423Z,12.10
2023-03-25T12:10:55.414Z,12.05
2023-03-25T12:11:55.416Z,12.10
2023-03-25T12:12:55.425Z,12.20
2023-03-25T12:13:55.388Z,12.34
2023-03-25T12:14:55.425Z,12.41
2023-03-25T12:15:55.400Z,12.59
2023-03-25T12:16:55.353Z,12.87
2023-03-25T12:17:55.405Z,13.17
2023-03-25T12:18:55.328Z,13.08
2023-03-25T12:19:55.319Z,13.26
2023-03-25T12:20:55.300Z,13.33
2023-03-25T12:21:55.292Z,13.28
2023-03-25T12:22:55.317Z,13.00
2023-03-25T12:23:55.266Z,12.93
2023-03-25T12:24:55.275Z,12.79
2023-03-25T12:25:55.242Z,12.82
2023-03-25T12:26:55.237Z,12.89
2023-03-25T12:27:55.256Z,12.87
2023-03-25T12:28:55.208Z,13.01
2023-03-25T12:29:55.206Z,13.14
2023-03-25T12:30:55.212Z,13.49
2023-03-25T12:31:55.349Z,13.28
2023-03-25T12:32:55.215Z,13.45
2023-03-25T12:33:55.164Z,13.45
2023-03-25T12:34:55.162Z,13.52
2023-03-25T12:35:55.178Z,13.71
2023-03-25T12:36:55.155Z,13.99
2023-03-25T12:37:55.139Z,14.04
2023-03-25T12:38:55.106Z,14.14
2023-03-25T12:39:55.130Z,14.02
2023-03-25T12:40:55.084Z,13.87
2023-03-25T12:41:55.102Z,13.78
2023-03-25T12:42:55.082Z,13.57
2023-03-25T12:43:55.048Z,13.41
2023-03-25T12:44:55.035Z,13.25
2023-03-25T12:45:55.131Z,13.01
2023-03-25T12:46:55.024Z,12.87
2023-03-25T12:47:55.070Z,12.79
2023-03-25T12:48:54.992Z,12.87
2023-03-25T12:49:54.987Z,12.77
2023-03-25T12:50:54.965Z,12.78
2023-03-25T12:51:54.981Z,12.60
2023-03-25T12:52:54.978Z,12.59
2023-03-25T12:53:54.941Z,12.39
2023-03-25T12:54:54.926Z,12.45
2023-03-25T12:55:54.919Z,12.49
2023-03-25T12:56:54.944Z,12.52
2023-03-25T12:57:54.918Z,12.57
2023-03-25T12:58:54.912Z,12.71
2023-03-25T12:59:54.879Z,12.85
2023-03-25T13:00:55.019Z,13.04
2023-03-25T13:01:54.865Z,13.22
2023-03-25T13:02:54.990Z,13.25
2023-03-25T13:03:54.850Z,13.28
2023-03-25T13:04:54.838Z,13.44
2023-03-25T13:05:54.836Z,13.49
2023-03-25T13:06:54.805Z,13.52
2023-03-25T13:07:54.783Z,13.85
2023-03-25T13:08:54.763Z,14.02
2023-03-25T13:09:54.792Z,14.20
2023-03-25T13:10:54.769Z,14.21
2023-03-25T13:11:54.792Z,14.24
2023-03-25T13:12:54.734Z,14.10
2023-03-25T13:13:54.746Z,14.15
2023-03-25T13:14:54.733Z,14.29